M/y Unica — J8Y4072 — position and weather

sailwx.info

Track history (hours):
 
Tides and Currents Weather Stations Pressure Air Temp Water Temp Dewpoint Dewpoint Depression Visibility Wind Speed Wind Dir Waves Ship Positions

M/y Unica

Last reported at 2014-Aug-03 00:16 UTC. Time now 2014-Sep-03 02:37 UTC.
Position N 38°16' E 013°28'.
Warning: this ship's position is 31 days out of date.

Length 30 m; draft 2 m.

Type: Pleasure craft. MMSI: 377319000.

Date/timePositionNaut miles runAvg speedWind from/ knotsBaromVisibWave heightAir tempDewpointWater temp
2014-Aug-03 00:16N 38°16' E 013°28'6 9.0
2014-Aug-02 23:34N 38°15' E 013°20'10 9.7
2014-Aug-02 22:34N 38°13' E 013°08'  
2014-Jul-28 14:29N 39°07' E 009°17'910.1
2014-Jul-28 13:33N 39°11' E 009°06'1 1.4
2014-Jul-28 12:33N 39°13' E 009°07'0 0.0
2014-Jul-28 11:33N 39°13' E 009°07'0 0.0
2014-Jul-28 10:33N 39°13' E 009°07'0 0.0
2014-Jul-28 09:33N 39°13' E 009°07'0 0.0
2014-Jul-28 08:30N 39°13' E 009°07'0 0.0
2014-Jul-28 07:33N 39°13' E 009°07'0 0.0
2014-Jul-28 06:33N 39°13' E 009°07'0 0.0
2014-Jul-28 05:33N 39°13' E 009°07'0 0.0
2014-Jul-28 04:33N 39°13' E 009°07'0 0.0
2014-Jul-28 03:33N 39°13' E 009°07'0 0.0
2014-Jul-28 02:32N 39°13' E 009°07'0 0.0
2014-Jul-28 01:33N 39°13' E 009°07'0 0.0
2014-Jul-28 00:33N 39°13' E 009°07'0 0.0
2014-Jul-27 23:33N 39°13' E 009°07'0 0.0
2014-Jul-27 22:33N 39°13' E 009°07'0 0.0
2014-Jul-27 21:33N 39°13' E 009°07'0 0.0
2014-Jul-27 20:33N 39°13' E 009°07'0 0.0
2014-Jul-27 19:33N 39°13' E 009°07'0 0.0
2014-Jul-27 18:33N 39°13' E 009°07'0 0.0
2014-Jul-27 17:32N 39°13' E 009°07'8 8.0
2014-Jul-27 16:33N 39°08' E 009°15'20 5.9
2014-Jul-27 13:14N 39°18' E 009°37'0 0.0
2014-Jul-27 12:25N 39°18' E 009°37'0 0.0
2014-Jul-27 11:31N 39°18' E 009°37'  
Track history (hours):
 
Tides and Currents Weather Stations Pressure Air Temp Water Temp Dewpoint Dewpoint Depression Visibility Wind Speed Wind Dir Waves Ship Positions

M/y Unica

Last reported at 2014-Aug-03 00:16 UTC. Time now 2014-Sep-03 02:37 UTC.
Position N 38°16' E 013°28'.
Warning: this ship's position is 31 days out of date.

Length 30 m; draft 2 m.

Type: Pleasure craft. MMSI: 377319000.

Date/timePositionNaut miles runAvg speedWind from/ knotsBaromVisibWave heightAir tempDewpointWater temp
2014-Aug-03 00:16N 38°16' E 013°28'6 9.0
2014-Aug-02 23:34N 38°15' E 013°20'10 9.7
2014-Aug-02 22:34N 38°13' E 013°08'  
2014-Jul-28 14:29N 39°07' E 009°17'910.1
2014-Jul-28 13:33N 39°11' E 009°06'1 1.4
2014-Jul-28 12:33N 39°13' E 009°07'0 0.0
2014-Jul-28 11:33N 39°13' E 009°07'0 0.0
2014-Jul-28 10:33N 39°13' E 009°07'0 0.0
2014-Jul-28 09:33N 39°13' E 009°07'0 0.0
2014-Jul-28 08:30N 39°13' E 009°07'0 0.0
2014-Jul-28 07:33N 39°13' E 009°07'0 0.0
2014-Jul-28 06:33N 39°13' E 009°07'0 0.0
2014-Jul-28 05:33N 39°13' E 009°07'0 0.0
2014-Jul-28 04:33N 39°13' E 009°07'0 0.0
2014-Jul-28 03:33N 39°13' E 009°07'0 0.0
2014-Jul-28 02:32N 39°13' E 009°07'0 0.0
2014-Jul-28 01:33N 39°13' E 009°07'0 0.0
2014-Jul-28 00:33N 39°13' E 009°07'0 0.0
2014-Jul-27 23:33N 39°13' E 009°07'0 0.0
2014-Jul-27 22:33N 39°13' E 009°07'0 0.0
2014-Jul-27 21:33N 39°13' E 009°07'0 0.0
2014-Jul-27 20:33N 39°13' E 009°07'0 0.0
2014-Jul-27 19:33N 39°13' E 009°07'0 0.0
2014-Jul-27 18:33N 39°13' E 009°07'0 0.0
2014-Jul-27 17:32N 39°13' E 009°07'8 8.0
2014-Jul-27 16:33N 39°08' E 009°15'20 5.9
2014-Jul-27 13:14N 39°18' E 009°37'0 0.0
2014-Jul-27 12:25N 39°18' E 009°37'0 0.0
2014-Jul-27 11:31N 39°18' E 009°37'  

Dump ship's entire track history